This is the latest recevied weather packets stored in our database for station/object OK1FET-4. If no packets are shown the sender has not sent any weather packets the latest 1 day(s).
| Time | Temp. | Humidity | Pressure | Rain* | Wind** | Luminosity | Snow |
|---|---|---|---|---|---|---|---|
| 1778027231 | 12.22° C | 96% | 1006.9 hPa | - | 3.13 m/s, 263° | - | - |
| 1778027231 | 12.22° C | 96% | 1006.9 hPa | - | 3.13 m/s, 263° | - | - |
| 1778026931 | 12.22° C | 96% | 1007 hPa | - | 3.13 m/s, 263° | - | - |
| 1778026931 | 12.22° C | 96% | 1007 hPa | - | 3.13 m/s, 263° | - | - |
| 1778026931 | 12.22° C | 96% | 1007 hPa | - | 3.13 m/s, 263° | - | - |
| 1778026631 | 12.22° C | 96% | 1007 hPa | - | 3.13 m/s, 267° | - | - |
| 1778026631 | 12.22° C | 96% | 1007 hPa | - | 3.13 m/s, 267° | - | - |
| 1778026331 | 12.22° C | 96% | 1007 hPa | - | 2.24 m/s, 263° | - | - |
| 1778026331 | 12.22° C | 96% | 1007 hPa | - | 2.24 m/s, 263° | - | - |
| 1778026030 | 12.22° C | 96% | 1007 hPa | - | 2.68 m/s, 270° | - | - |
| 1778026030 | 12.22° C | 96% | 1007 hPa | - | 2.68 m/s, 270° | - | - |
| 1778026030 | 12.22° C | 96% | 1007 hPa | - | 2.68 m/s, 270° | - | - |
| 1778025730 | 12.22° C | 96% | 1006.9 hPa | - | 1.79 m/s, 253° | - | - |
| 1778025730 | 12.22° C | 96% | 1006.9 hPa | - | 1.79 m/s, 253° | - | - |
| 1778025730 | 12.22° C | 96% | 1006.9 hPa | - | 1.79 m/s, 253° | - | - |
| 1778025430 | 12.22° C | 96% | 1006.8 hPa | - | 1.34 m/s, 244° | - | - |
| 1778025430 | 12.22° C | 96% | 1006.8 hPa | - | 1.34 m/s, 244° | - | - |
| 1778025430 | 12.22° C | 96% | 1006.8 hPa | - | 1.34 m/s, 244° | - | - |
| 1778025129 | 12.22° C | 96% | 1006.7 hPa | - | 1.34 m/s, 240° | - | - |
| 1778025129 | 12.22° C | 96% | 1006.7 hPa | - | 1.34 m/s, 240° | - | - |
| 1778024829 | 12.22° C | 96% | 1006.8 hPa | - | 0.89 m/s, 227° | - | - |
| 1778024829 | 12.22° C | 96% | 1006.8 hPa | - | 0.89 m/s, 227° | - | - |
| 1778024829 | 12.22° C | 96% | 1006.8 hPa | - | 0.89 m/s, 227° | - | - |
| 1778024529 | 12.22° C | 96% | 1006.9 hPa | - | 0.89 m/s, 213° | - | - |
| 1778024529 | 12.22° C | 96% | 1006.9 hPa | - | 0.89 m/s, 213° | - | - |
* Rain since midnight (hover to see other rain measurements)
** Current wind speed in m/s (hover to see current wind gust speed)